createdAt,value
2022-10-13T00:01:32.722Z,1.30
2022-10-13T00:04:41.307Z,1.47
2022-10-13T00:07:49.817Z,1.60
2022-10-13T00:11:00.484Z,1.40
2022-10-13T00:14:09.743Z,1.80
2022-10-13T00:17:18.165Z,1.63
2022-10-13T00:20:26.605Z,2.00
2022-10-13T00:23:35.885Z,1.93
2022-10-13T00:26:45.679Z,1.73
2022-10-13T00:30:00.603Z,2.10
2022-10-13T00:33:10.091Z,1.80
2022-10-13T00:36:18.677Z,2.00
2022-10-13T00:39:27.139Z,1.90
2022-10-13T00:42:36.985Z,1.80
2022-10-13T00:45:50.021Z,1.87
2022-10-13T00:49:00.851Z,2.30
2022-10-13T00:52:09.338Z,1.90
2022-10-13T00:55:21.699Z,1.87
2022-10-13T00:58:33.714Z,2.07
2022-10-13T01:01:42.242Z,1.80
2022-10-13T01:04:51.390Z,1.80
2022-10-13T01:08:02.237Z,1.67
2022-10-13T01:11:28.795Z,1.47
2022-10-13T01:14:48.455Z,1.57
2022-10-13T01:18:09.099Z,1.83
2022-10-13T01:21:24.579Z,1.60
2022-10-13T01:24:45.191Z,1.63
2022-10-13T01:28:27.343Z,1.70
2022-10-13T01:31:43.099Z,1.47
2022-10-13T01:34:58.995Z,1.47
2022-10-13T01:38:16.275Z,1.53
2022-10-13T01:41:30.052Z,1.50
2022-10-13T01:44:42.265Z,1.50
2022-10-13T01:47:54.051Z,1.67
2022-10-13T01:51:02.761Z,1.67
2022-10-13T01:54:11.764Z,1.50
2022-10-13T01:57:33.086Z,1.40
2022-10-13T02:00:45.674Z,1.47
2022-10-13T02:04:04.270Z,1.60
2022-10-13T02:07:20.958Z,1.57
2022-10-13T02:10:36.088Z,1.60
2022-10-13T02:14:00.601Z,1.37
2022-10-13T02:17:11.547Z,1.73
2022-10-13T02:20:24.091Z,1.70
2022-10-13T02:23:33.293Z,2.03
2022-10-13T02:26:42.991Z,1.87
2022-10-13T02:29:54.836Z,2.00
2022-10-13T02:33:07.210Z,1.83
2022-10-13T02:36:18.144Z,1.53
2022-10-13T02:39:26.582Z,1.43
2022-10-13T02:42:35.028Z,1.50
2022-10-13T02:45:44.261Z,1.30
2022-10-13T02:48:52.748Z,1.53
2022-10-13T02:52:02.642Z,1.43
2022-10-13T02:55:11.219Z,1.53
2022-10-13T02:58:19.605Z,1.50
2022-10-13T03:01:28.058Z,1.50
2022-10-13T03:04:36.568Z,1.80
2022-10-13T03:07:46.406Z,1.63
2022-10-13T03:10:55.004Z,1.40
2022-10-13T03:14:04.068Z,1.63
2022-10-13T03:17:13.610Z,1.70
2022-10-13T03:20:22.146Z,1.60
2022-10-13T03:23:33.039Z,1.50
2022-10-13T03:26:41.500Z,1.73
2022-10-13T03:29:49.892Z,1.40
2022-10-13T03:32:58.310Z,1.37
2022-10-13T03:36:08.765Z,1.63
2022-10-13T03:39:18.589Z,1.70
2022-10-13T03:42:27.101Z,1.60
2022-10-13T03:45:35.542Z,1.70
2022-10-13T03:48:44.160Z,1.50
2022-10-13T03:51:52.603Z,1.60
2022-10-13T03:55:02.478Z,1.50
2022-10-13T03:58:10.897Z,1.53
2022-10-13T04:01:19.361Z,1.63
2022-10-13T04:04:28.019Z,1.40
2022-10-13T04:07:37.728Z,1.53
2022-10-13T04:11:01.328Z,1.80
2022-10-13T04:14:10.050Z,1.80
2022-10-13T04:17:18.459Z,1.60
2022-10-13T04:20:26.877Z,1.70
2022-10-13T04:23:35.355Z,1.60
2022-10-13T04:26:46.383Z,1.63
2022-10-13T04:29:55.214Z,1.83
2022-10-13T04:33:04.051Z,1.60
2022-10-13T04:36:14.048Z,1.67
2022-10-13T04:39:22.451Z,1.67
2022-10-13T04:42:33.094Z,1.73
2022-10-13T04:45:41.571Z,1.50
2022-10-13T04:48:50.520Z,1.37
2022-10-13T04:52:01.113Z,1.70
2022-10-13T04:55:10.298Z,1.67
2022-10-13T04:58:20.074Z,1.63
2022-10-13T05:01:28.807Z,2.03
2022-10-13T05:04:37.299Z,1.70
2022-10-13T05:07:45.717Z,2.00
2022-10-13T05:10:58.426Z,1.60
2022-10-13T05:14:08.358Z,1.73
2022-10-13T05:17:17.188Z,1.83
2022-10-13T05:20:25.583Z,1.70
2022-10-13T05:23:34.053Z,1.60
2022-10-13T05:26:42.879Z,1.90
2022-10-13T05:29:52.786Z,1.97
2022-10-13T05:33:01.277Z,1.70
2022-10-13T05:36:12.589Z,1.77
2022-10-13T05:39:21.028Z,1.60
2022-10-13T05:42:30.670Z,1.93
2022-10-13T05:45:41.061Z,1.70
2022-10-13T05:48:49.498Z,1.60
2022-10-13T05:52:00.247Z,1.97
2022-10-13T05:55:12.368Z,1.67
2022-10-13T05:58:20.949Z,1.70
2022-10-13T06:01:35.446Z,1.70
2022-10-13T06:04:49.079Z,1.70
2022-10-13T06:07:58.251Z,1.53
2022-10-13T06:11:08.384Z,1.57
2022-10-13T06:14:16.819Z,1.97
2022-10-13T06:17:26.750Z,1.93
2022-10-13T06:20:35.254Z,1.63
2022-10-13T06:23:43.961Z,1.60
2022-10-13T06:26:52.736Z,1.47
2022-10-13T06:30:01.217Z,1.70
2022-10-13T06:33:11.096Z,1.50
2022-10-13T06:36:19.501Z,1.70
2022-10-13T06:39:28.080Z,1.90
2022-10-13T06:42:36.582Z,1.63
2022-10-13T06:45:51.104Z,1.90
2022-10-13T06:49:00.894Z,1.70
2022-10-13T06:52:10.671Z,1.80
2022-10-13T06:55:19.620Z,1.73
2022-10-13T06:58:28.429Z,1.57
2022-10-13T07:01:41.376Z,1.40
2022-10-13T07:04:55.343Z,1.90
2022-10-13T07:08:03.820Z,1.60
2022-10-13T07:11:16.240Z,1.60
2022-10-13T07:14:30.031Z,1.50
2022-10-13T07:17:38.897Z,1.50
2022-10-13T07:20:48.838Z,1.93
2022-10-13T07:23:57.467Z,1.80
2022-10-13T07:27:07.939Z,1.90
2022-10-13T07:30:16.727Z,1.60
2022-10-13T07:33:28.712Z,1.97
2022-10-13T07:36:41.727Z,1.50
2022-10-13T07:39:50.330Z,1.57
2022-10-13T07:42:59.101Z,1.60
2022-10-13T07:46:08.618Z,1.33
2022-10-13T07:49:17.133Z,1.73
2022-10-13T07:52:27.036Z,1.70
2022-10-13T07:55:35.504Z,1.50
2022-10-13T07:58:45.870Z,1.70
2022-10-13T08:01:54.308Z,1.53
2022-10-13T08:05:04.802Z,1.90
2022-10-13T08:08:14.738Z,1.87
2022-10-13T08:11:23.193Z,1.80
2022-10-13T08:14:32.216Z,1.93
2022-10-13T08:17:40.843Z,1.70
2022-10-13T08:20:49.293Z,1.60
2022-10-13T08:24:00.910Z,1.83
2022-10-13T08:27:12.277Z,1.53
2022-10-13T08:30:22.558Z,1.97
2022-10-13T08:33:31.117Z,1.67
2022-10-13T08:36:40.244Z,2.00
2022-10-13T08:39:50.141Z,1.57
2022-10-13T08:43:00.601Z,2.07
2022-10-13T08:46:10.670Z,1.80
2022-10-13T08:49:19.542Z,1.60
2022-10-13T08:52:30.646Z,1.87
2022-10-13T08:55:44.115Z,1.53
2022-10-13T08:58:54.536Z,1.60
2022-10-13T09:02:10.730Z,1.47
2022-10-13T09:05:30.574Z,1.80
2022-10-13T09:08:52.127Z,1.57
2022-10-13T09:12:02.263Z,1.53
2022-10-13T09:15:13.033Z,1.50
2022-10-13T09:18:30.003Z,1.73
2022-10-13T09:21:38.598Z,1.60
2022-10-13T09:24:47.074Z,1.30
2022-10-13T09:27:58.724Z,1.50
2022-10-13T09:31:15.649Z,1.53
2022-10-13T09:34:26.346Z,2.10
2022-10-13T09:37:39.979Z,1.17
2022-10-13T09:41:01.775Z,1.70
2022-10-13T09:44:18.369Z,1.30
2022-10-13T09:47:29.857Z,1.60
2022-10-13T09:50:38.301Z,1.50
2022-10-13T09:53:49.341Z,1.77
2022-10-13T09:57:02.577Z,1.90
2022-10-13T10:00:22.260Z,1.53
2022-10-13T10:03:35.382Z,1.63
2022-10-13T10:06:46.666Z,1.70
2022-10-13T10:09:58.053Z,1.67
2022-10-13T10:13:06.582Z,1.30
2022-10-13T10:16:29.987Z,1.50
2022-10-13T10:19:49.562Z,1.60
2022-10-13T10:23:06.058Z,1.70
2022-10-13T10:26:23.700Z,1.50
2022-10-13T10:29:45.433Z,1.80
2022-10-13T10:33:00.271Z,1.80
2022-10-13T10:36:16.938Z,1.83
2022-10-13T10:39:32.198Z,1.70
2022-10-13T10:43:02.860Z,2.10
2022-10-13T10:46:18.223Z,1.80
2022-10-13T10:49:32.357Z,1.70
2022-10-13T10:52:49.053Z,1.50
2022-10-13T10:56:03.519Z,1.80
2022-10-13T10:59:27.954Z,1.70
2022-10-13T11:02:48.372Z,1.70
2022-10-13T11:06:06.717Z,2.00
2022-10-13T11:09:15.544Z,1.80
2022-10-13T11:12:24.764Z,1.90
2022-10-13T11:15:43.535Z,1.80
2022-10-13T11:19:09.519Z,1.83
2022-10-13T11:22:24.539Z,1.87
2022-10-13T11:25:39.571Z,1.97
2022-10-13T11:28:50.383Z,2.30
2022-10-13T11:31:58.878Z,2.10
2022-10-13T11:35:21.840Z,2.00
2022-10-13T11:38:39.426Z,1.87
2022-10-13T11:41:59.583Z,2.00
2022-10-13T11:45:22.325Z,1.80
2022-10-13T11:49:00.834Z,1.80
2022-10-13T11:52:31.332Z,1.80
2022-10-13T11:55:49.393Z,1.60
2022-10-13T11:58:57.857Z,1.90
2022-10-13T12:02:18.983Z,2.07
2022-10-13T12:05:29.711Z,2.03
2022-10-13T12:08:39.166Z,2.00
2022-10-13T12:11:57.077Z,2.20
2022-10-13T12:15:32.935Z,2.20
2022-10-13T12:18:42.711Z,1.70
2022-10-13T12:21:52.295Z,2.20
2022-10-13T12:25:02.567Z,2.80
2022-10-13T12:28:19.925Z,2.37
2022-10-13T12:31:40.802Z,2.03
2022-10-13T12:34:49.223Z,2.00
2022-10-13T12:37:59.207Z,2.00
2022-10-13T12:41:07.887Z,2.00
2022-10-13T12:44:21.983Z,1.83
2022-10-13T12:47:50.188Z,2.27
2022-10-13T12:51:10.124Z,2.30
2022-10-13T12:54:23.450Z,2.37
2022-10-13T12:57:37.719Z,1.90
2022-10-13T13:01:01.854Z,2.67
2022-10-13T13:04:29.295Z,2.13
2022-10-13T13:07:38.680Z,2.00
2022-10-13T13:10:55.792Z,2.67
2022-10-13T13:14:24.530Z,2.20
2022-10-13T13:21:03.348Z,2.27
2022-10-13T13:24:28.262Z,2.53
2022-10-13T13:27:41.646Z,2.33
2022-10-13T13:30:50.065Z,2.37
2022-10-13T13:33:59.970Z,2.50
2022-10-13T13:37:14.132Z,2.50
2022-10-13T13:40:24.390Z,2.30
2022-10-13T13:43:32.861Z,2.80
2022-10-13T13:46:42.129Z,2.43
2022-10-13T13:49:53.667Z,2.30
2022-10-13T13:53:02.495Z,2.50
2022-10-13T13:56:14.180Z,2.20
2022-10-13T13:59:22.707Z,2.37
2022-10-13T14:02:34.612Z,2.60
2022-10-13T14:05:44.555Z,2.03
2022-10-13T14:08:55.737Z,2.83
2022-10-13T14:12:04.443Z,2.20
2022-10-13T14:15:12.974Z,2.50
2022-10-13T14:18:21.453Z,2.53
2022-10-13T14:21:31.271Z,2.50
2022-10-13T14:24:39.694Z,2.70
2022-10-13T14:27:49.623Z,2.23
2022-10-13T14:30:58.048Z,2.63
2022-10-13T14:34:06.458Z,2.20
2022-10-13T14:37:18.849Z,2.10
2022-10-13T14:40:29.418Z,2.60
2022-10-13T14:43:37.895Z,2.80
2022-10-13T14:46:46.329Z,2.20
2022-10-13T14:49:54.775Z,2.33
2022-10-13T14:53:04.782Z,2.57
2022-10-13T14:56:18.642Z,2.40
2022-10-13T14:59:31.045Z,2.13
2022-10-13T15:02:39.416Z,2.10
2022-10-13T15:05:47.792Z,2.13
2022-10-13T15:09:00.700Z,1.97
2022-10-13T15:12:09.270Z,2.07
2022-10-13T15:15:18.002Z,2.27
2022-10-13T15:18:29.391Z,2.10
2022-10-13T15:21:38.089Z,2.10
2022-10-13T15:24:48.902Z,2.10
2022-10-13T15:27:57.418Z,2.30
2022-10-13T15:31:06.274Z,2.10
2022-10-13T15:34:14.730Z,2.27
2022-10-13T15:37:23.184Z,2.37
2022-10-13T15:40:34.707Z,2.47
2022-10-13T15:43:43.242Z,1.80
2022-10-13T15:47:07.549Z,2.33
2022-10-13T15:50:16.860Z,2.33
2022-10-13T15:53:25.698Z,2.23
2022-10-13T15:56:36.543Z,2.43
2022-10-13T15:59:44.957Z,2.10
2022-10-13T16:02:53.535Z,1.90
2022-10-13T16:06:05.420Z,2.23
2022-10-13T16:09:13.885Z,2.07
2022-10-13T16:12:24.390Z,2.50
2022-10-13T16:15:32.771Z,2.43
2022-10-13T16:18:42.187Z,2.80
2022-10-13T16:21:50.688Z,2.53
2022-10-13T16:24:59.153Z,2.60
2022-10-13T16:28:09.010Z,2.87
2022-10-13T16:31:18.853Z,2.50
2022-10-13T16:34:27.628Z,2.33
2022-10-13T16:37:36.047Z,1.80
2022-10-13T16:40:44.508Z,1.97
2022-10-13T16:43:54.271Z,2.20
2022-10-13T16:47:04.913Z,2.00
2022-10-13T16:50:13.350Z,2.10
2022-10-13T16:53:21.882Z,1.80
2022-10-13T16:56:31.168Z,1.70
2022-10-13T16:59:41.143Z,1.83
2022-10-13T17:02:49.741Z,1.80
2022-10-13T17:05:58.194Z,1.90
2022-10-13T17:09:06.747Z,1.97
2022-10-13T17:12:15.249Z,2.03
2022-10-13T17:15:25.063Z,1.60
2022-10-13T17:18:33.554Z,1.70
2022-10-13T17:21:42.060Z,1.90
2022-10-13T17:24:50.516Z,1.77
2022-10-13T17:27:58.931Z,2.03
2022-10-13T17:31:11.038Z,2.03
2022-10-13T17:34:19.501Z,1.70
2022-10-13T17:37:29.743Z,2.27
2022-10-13T17:40:38.153Z,1.93
2022-10-13T17:43:46.883Z,1.90
2022-10-13T17:46:56.731Z,1.80
2022-10-13T17:50:05.605Z,2.10
2022-10-13T17:53:14.081Z,2.13
2022-10-13T17:56:24.336Z,1.97
2022-10-13T17:59:32.944Z,2.00
2022-10-13T18:02:42.861Z,2.00
2022-10-13T18:05:51.472Z,2.40
2022-10-13T18:09:00.301Z,2.07
2022-10-13T18:12:10.004Z,2.23
2022-10-13T18:15:18.507Z,2.10
2022-10-13T18:18:28.349Z,2.47
2022-10-13T18:21:36.883Z,2.27
2022-10-13T18:24:45.479Z,2.37
2022-10-13T18:27:54.252Z,2.20
2022-10-13T18:31:06.940Z,3.07
2022-10-13T18:34:18.868Z,2.37
2022-10-13T18:37:27.306Z,2.17
2022-10-13T18:40:35.767Z,2.80
2022-10-13T18:43:44.229Z,2.70
2022-10-13T18:46:56.455Z,2.60
2022-10-13T18:50:06.880Z,2.60
2022-10-13T18:53:15.611Z,2.80
2022-10-13T18:56:26.066Z,2.90
2022-10-13T18:59:38.726Z,2.80
2022-10-13T19:02:47.223Z,2.70
2022-10-13T19:05:57.153Z,3.23
2022-10-13T19:09:07.874Z,3.27
2022-10-13T19:12:17.724Z,3.10
2022-10-13T19:15:26.194Z,3.07
2022-10-13T19:18:36.202Z,3.23
2022-10-13T19:21:46.059Z,3.40
2022-10-13T19:24:54.531Z,3.60
2022-10-13T19:28:04.882Z,3.40
2022-10-13T19:31:15.076Z,3.37
2022-10-13T19:34:24.153Z,4.20
2022-10-13T19:37:34.185Z,3.67
2022-10-13T19:40:43.633Z,4.00
2022-10-13T19:43:52.247Z,4.10
2022-10-13T19:47:03.442Z,3.57
2022-10-13T19:50:13.116Z,3.80
2022-10-13T19:53:22.949Z,4.50
2022-10-13T19:56:33.987Z,4.07
2022-10-13T19:59:47.388Z,4.20
2022-10-13T20:02:56.142Z,4.60
2022-10-13T20:06:05.909Z,4.67
2022-10-13T20:09:21.814Z,5.13
2022-10-13T20:12:30.795Z,5.83
2022-10-13T20:15:41.581Z,5.33
2022-10-13T20:18:53.398Z,5.37
2022-10-13T20:22:01.997Z,5.03
2022-10-13T20:25:14.861Z,5.63
2022-10-13T20:28:23.310Z,5.87
2022-10-13T20:31:31.878Z,5.57
2022-10-13T20:34:40.266Z,6.37
2022-10-13T20:37:48.767Z,6.20
2022-10-13T20:41:04.890Z,5.53
2022-10-13T20:44:13.443Z,6.00
2022-10-13T20:47:22.131Z,6.07
2022-10-13T20:50:30.805Z,6.30
2022-10-13T20:53:40.055Z,5.90
2022-10-13T20:56:50.019Z,6.57
2022-10-13T20:59:58.518Z,6.53
2022-10-13T21:03:07.026Z,7.37
2022-10-13T21:06:16.350Z,6.97
2022-10-13T21:09:24.813Z,7.00
2022-10-13T21:12:34.690Z,6.53
2022-10-13T21:15:45.392Z,7.37
2022-10-13T21:18:57.166Z,7.00
2022-10-13T21:22:05.603Z,6.97
2022-10-13T21:25:14.356Z,6.93
2022-10-13T21:28:24.215Z,6.90
2022-10-13T21:31:33.936Z,6.93
2022-10-13T21:34:42.319Z,7.37
2022-10-13T21:37:50.928Z,6.80
2022-10-13T21:40:59.372Z,7.50
2022-10-13T21:44:09.190Z,6.90
2022-10-13T21:47:17.707Z,7.40
2022-10-13T21:50:26.284Z,8.10
2022-10-13T21:53:34.691Z,7.00
2022-10-13T21:56:43.447Z,7.10
2022-10-13T21:59:53.292Z,7.37
2022-10-13T22:03:01.702Z,8.20
2022-10-13T22:06:17.430Z,8.40
2022-10-13T22:09:26.871Z,8.07
2022-10-13T22:12:39.472Z,7.37
2022-10-13T22:15:49.366Z,8.50
2022-10-13T22:19:00.713Z,8.90
2022-10-13T22:22:09.127Z,8.83
2022-10-13T22:25:18.284Z,8.20
2022-10-13T22:28:26.814Z,8.03
2022-10-13T22:31:36.903Z,8.37
2022-10-13T22:34:50.228Z,8.53
2022-10-13T22:37:58.722Z,8.50
2022-10-13T22:41:08.778Z,8.90
2022-10-13T22:44:17.139Z,9.17
2022-10-13T22:47:27.002Z,9.67
2022-10-13T22:50:36.311Z,8.03
2022-10-13T22:53:45.532Z,8.93
2022-10-13T22:56:53.951Z,9.17
2022-10-13T23:00:02.466Z,9.17
2022-10-13T23:03:15.400Z,9.83
2022-10-13T23:06:29.143Z,9.53
2022-10-13T23:09:37.559Z,8.77
2022-10-13T23:12:46.046Z,9.63
2022-10-13T23:15:54.613Z,9.53
2022-10-13T23:19:09.643Z,8.97
2022-10-13T23:22:18.011Z,9.07
2022-10-13T23:25:26.531Z,9.73
2022-10-13T23:28:35.799Z,9.23
2022-10-13T23:31:44.251Z,10.37
2022-10-13T23:34:54.128Z,9.77
2022-10-13T23:38:03.558Z,9.93
2022-10-13T23:41:13.886Z,9.13
2022-10-13T23:44:23.754Z,10.03
2022-10-13T23:47:32.906Z,9.77
2022-10-13T23:50:42.704Z,9.43
2022-10-13T23:53:51.630Z,9.53
2022-10-13T23:57:00.026Z,8.93
